Bookmark and Share
Track history (hours):
 

Tombarra

Last reported at 2014-Apr-12 20:32 UTC. Time now 2014-Apr-18 16:18 UTC.
Position N 01°13' E 103°27'.

Length 199 m; draft 10 m.

Type: Ship. MMSI: 232971000.

NotesDate/timePositionNaut miles runAvg speedWind from/ knotsBaromVisibWave heightAir tempDewpointWater temp
2014-Apr-12 20:32N 01°13' E 103°27'1413.5
2014-Apr-12 19:31N 01°13' E 103°41'6 6.3
2014-Apr-12 18:33N 01°17' E 103°45'0 0.1
2014-Apr-12 17:30N 01°17' E 103°45'0 0.0
2014-Apr-12 16:30N 01°17' E 103°45'0 0.0
2014-Apr-12 15:30N 01°17' E 103°45'0 0.0
2014-Apr-12 14:33N 01°17' E 103°45'3 3.4
2014-Apr-12 13:34N 01°14' E 103°47'9 8.2
2014-Apr-12 12:24N 01°15' E 103°56'3 0.5
2014-Apr-12 06:31N 01°17' E 103°58'0 0.0
2014-Apr-12 02:13N 01°17' E 103°58'0 0.0
2014-Apr-12 00:14N 01°17' E 103°58'1 1.5
2014-Apr-11 23:33N 01°16' E 103°58'  
2014-Apr-05 00:29N 21°58' E 119°05'1617.2
2014-Apr-04 23:32N 22°13' E 119°13'1716.4
2014-Apr-04 22:31N 22°27' E 119°21'8816.7
2014-Apr-04 17:16N 23°48' E 119°57'1115.7
2014-Apr-04 16:33N 23°59' E 119°60'1616.1
2014-Apr-04 15:33N 24°13' E 120°09'1716.8
2014-Apr-04 14:33N 24°28' E 120°18'30016.4
2014-Apr-03 20:15N 28°57' E 122°45'3215.5
2014-Apr-03 18:11N 29°26' E 123°00'10513.6
2014-Apr-03 10:29N 31°06' E 122°23'1613.7
2014-Apr-03 09:20N 31°13' E 122°06'1214.1
2014-Apr-03 08:28N 31°16' E 121°53'1011.0
2014-Apr-03 07:33N 31°19' E 121°42'1 0.2
2014-Apr-03 05:17N 31°19' E 121°41'0 0.0
2014-Apr-03 04:29N 31°19' E 121°41'0 0.0
2014-Apr-03 02:17N 31°19' E 121°41'0 0.0
2014-Apr-03 01:29N 31°19' E 121°41'0 0.0
2014-Apr-03 00:23N 31°19' E 121°41'0 0.0
2014-Apr-02 23:29N 31°19' E 121°41'0 0.0
2014-Apr-02 22:29N 31°19' E 121°41'0 0.0
2014-Apr-02 21:23N 31°19' E 121°41'  

Dump ship's entire track history

sailing weather and tide predictions

Tombarra — MPRD6 — position and weather